sensor_id;sensor_type;location;lat;lon;timestamp;temperature;humidity
29413;DHT22;16389;50.126;8.450;2023-05-07T00:02:06;14.60;99.90
29413;DHT22;16389;50.126;8.450;2023-05-07T00:04:32;14.60;99.90
29413;DHT22;16389;50.126;8.450;2023-05-07T00:07:02;14.60;99.90
29413;DHT22;16389;50.126;8.450;2023-05-07T00:09:28;14.60;99.90
29413;DHT22;16389;50.126;8.450;2023-05-07T00:11:53;14.50;99.90
29413;DHT22;16389;50.126;8.450;2023-05-07T00:14:19;14.60;99.90
29413;DHT22;16389;50.126;8.450;2023-05-07T00:16:45;14.50;99.90
29413;DHT22;16389;50.126;8.450;2023-05-07T00:19:10;14.50;99.90
29413;DHT22;16389;50.126;8.450;2023-05-07T00:21:36;14.50;99.90
29413;DHT22;16389;50.126;8.450;2023-05-07T00:24:02;14.50;99.90
29413;DHT22;16389;50.126;8.450;2023-05-07T00:26:27;14.50;99.90
29413;DHT22;16389;50.126;8.450;2023-05-07T00:28:53;14.50;99.90
29413;DHT22;16389;50.126;8.450;2023-05-07T00:31:19;14.50;99.90
29413;DHT22;16389;50.126;8.450;2023-05-07T00:33:44;14.50;99.90
29413;DHT22;16389;50.126;8.450;2023-05-07T00:36:10;14.50;99.90
29413;DHT22;16389;50.126;8.450;2023-05-07T00:38:35;14.50;99.90
29413;DHT22;16389;50.126;8.450;2023-05-07T00:41:01;14.50;99.90
29413;DHT22;16389;50.126;8.450;2023-05-07T00:43:27;14.50;99.90
29413;DHT22;16389;50.126;8.450;2023-05-07T00:45:54;14.50;99.90
29413;DHT22;16389;50.126;8.450;2023-05-07T00:48:20;14.50;99.90
29413;DHT22;16389;50.126;8.450;2023-05-07T00:50:46;14.40;99.90
29413;DHT22;16389;50.126;8.450;2023-05-07T00:53:12;14.40;99.90
29413;DHT22;16389;50.126;8.450;2023-05-07T00:55:38;14.40;99.90
29413;DHT22;16389;50.126;8.450;2023-05-07T00:58:04;14.40;99.90
29413;DHT22;16389;50.126;8.450;2023-05-07T01:00:30;14.40;99.90
29413;DHT22;16389;50.126;8.450;2023-05-07T01:02:55;14.40;99.90
29413;DHT22;16389;50.126;8.450;2023-05-07T01:05:23;14.30;99.90
29413;DHT22;16389;50.126;8.450;2023-05-07T01:07:50;14.30;99.90
29413;DHT22;16389;50.126;8.450;2023-05-07T01:10:18;14.40;99.90
29413;DHT22;16389;50.126;8.450;2023-05-07T01:12:45;14.30;99.90
29413;DHT22;16389;50.126;8.450;2023-05-07T01:15:12;14.30;99.90
29413;DHT22;16389;50.126;8.450;2023-05-07T01:17:40;14.30;99.90
29413;DHT22;16389;50.126;8.450;2023-05-07T01:20:06;14.30;99.90
29413;DHT22;16389;50.126;8.450;2023-05-07T01:22:37;14.30;99.90
29413;DHT22;16389;50.126;8.450;2023-05-07T01:25:04;14.30;99.90
29413;DHT22;16389;50.126;8.450;2023-05-07T01:27:30;14.40;99.90
29413;DHT22;16389;50.126;8.450;2023-05-07T01:29:55;14.40;99.90
29413;DHT22;16389;50.126;8.450;2023-05-07T01:32:31;14.40;99.90
29413;DHT22;16389;50.126;8.450;2023-05-07T01:34:58;14.50;99.90
29413;DHT22;16389;50.126;8.450;2023-05-07T01:37:25;14.40;99.90
29413;DHT22;16389;50.126;8.450;2023-05-07T01:39:52;14.50;99.90
29413;DHT22;16389;50.126;8.450;2023-05-07T01:42:18;14.40;99.90
29413;DHT22;16389;50.126;8.450;2023-05-07T01:44:44;14.50;99.90
29413;DHT22;16389;50.126;8.450;2023-05-07T01:47:10;14.40;99.90
29413;DHT22;16389;50.126;8.450;2023-05-07T01:49:37;14.40;99.90
29413;DHT22;16389;50.126;8.450;2023-05-07T01:52:03;14.40;99.90
29413;DHT22;16389;50.126;8.450;2023-05-07T01:54:29;14.40;99.90
29413;DHT22;16389;50.126;8.450;2023-05-07T01:56:58;14.50;99.90
29413;DHT22;16389;50.126;8.450;2023-05-07T01:59:24;14.50;99.90
29413;DHT22;16389;50.126;8.450;2023-05-07T02:01:50;14.50;99.90
29413;DHT22;16389;50.126;8.450;2023-05-07T02:04:16;14.50;99.90
29413;DHT22;16389;50.126;8.450;2023-05-07T02:06:41;14.50;99.90
29413;DHT22;16389;50.126;8.450;2023-05-07T02:09:07;14.50;99.90
29413;DHT22;16389;50.126;8.450;2023-05-07T02:11:34;14.50;99.90
29413;DHT22;16389;50.126;8.450;2023-05-07T02:13:59;14.50;99.90
29413;DHT22;16389;50.126;8.450;2023-05-07T02:16:25;14.40;99.90
29413;DHT22;16389;50.126;8.450;2023-05-07T02:18:51;14.40;99.90
29413;DHT22;16389;50.126;8.450;2023-05-07T02:21:16;14.40;99.90
29413;DHT22;16389;50.126;8.450;2023-05-07T02:23:42;14.40;99.90
29413;DHT22;16389;50.126;8.450;2023-05-07T02:26:07;14.50;99.90
29413;DHT22;16389;50.126;8.450;2023-05-07T02:28:33;14.40;99.90
29413;DHT22;16389;50.126;8.450;2023-05-07T02:31:03;14.40;99.90
29413;DHT22;16389;50.126;8.450;2023-05-07T02:33:28;14.50;99.90
29413;DHT22;16389;50.126;8.450;2023-05-07T02:35:54;14.40;99.90
29413;DHT22;16389;50.126;8.450;2023-05-07T02:38:20;14.40;99.90
29413;DHT22;16389;50.126;8.450;2023-05-07T02:40:45;14.40;99.90
29413;DHT22;16389;50.126;8.450;2023-05-07T02:43:11;14.40;99.90
29413;DHT22;16389;50.126;8.450;2023-05-07T02:45:36;14.40;99.90
29413;DHT22;16389;50.126;8.450;2023-05-07T02:48:03;14.40;99.90
29413;DHT22;16389;50.126;8.450;2023-05-07T02:50:29;14.50;99.90
29413;DHT22;16389;50.126;8.450;2023-05-07T02:52:55;14.50;99.90
29413;DHT22;16389;50.126;8.450;2023-05-07T02:55:21;14.40;99.90
29413;DHT22;16389;50.126;8.450;2023-05-07T02:57:47;14.30;99.90
29413;DHT22;16389;50.126;8.450;2023-05-07T03:00:15;14.30;99.90
29413;DHT22;16389;50.126;8.450;2023-05-07T03:02:41;14.40;99.90
29413;DHT22;16389;50.126;8.450;2023-05-07T03:05:07;14.40;99.90
29413;DHT22;16389;50.126;8.450;2023-05-07T03:07:34;14.40;99.90
29413;DHT22;16389;50.126;8.450;2023-05-07T03:10:00;14.40;99.90
29413;DHT22;16389;50.126;8.450;2023-05-07T03:12:25;14.40;99.90
29413;DHT22;16389;50.126;8.450;2023-05-07T03:14:51;14.30;99.90
29413;DHT22;16389;50.126;8.450;2023-05-07T03:17:17;14.30;99.90
29413;DHT22;16389;50.126;8.450;2023-05-07T03:19:42;14.30;99.90
29413;DHT22;16389;50.126;8.450;2023-05-07T03:22:08;14.30;99.90
29413;DHT22;16389;50.126;8.450;2023-05-07T03:24:34;14.30;99.90
29413;DHT22;16389;50.126;8.450;2023-05-07T03:26:59;14.30;99.90
29413;DHT22;16389;50.126;8.450;2023-05-07T03:29:26;14.30;99.90
29413;DHT22;16389;50.126;8.450;2023-05-07T03:31:52;14.20;99.90
29413;DHT22;16389;50.126;8.450;2023-05-07T03:34:17;14.20;99.90
29413;DHT22;16389;50.126;8.450;2023-05-07T03:36:50;14.30;99.90
29413;DHT22;16389;50.126;8.450;2023-05-07T03:39:16;14.30;99.90
29413;DHT22;16389;50.126;8.450;2023-05-07T03:41:42;14.30;99.90
29413;DHT22;16389;50.126;8.450;2023-05-07T03:44:08;14.30;99.90
29413;DHT22;16389;50.126;8.450;2023-05-07T03:46:34;14.30;99.90
29413;DHT22;16389;50.126;8.450;2023-05-07T03:48:59;14.30;99.90
29413;DHT22;16389;50.126;8.450;2023-05-07T03:51:25;14.20;99.90
29413;DHT22;16389;50.126;8.450;2023-05-07T03:53:54;14.20;99.90
29413;DHT22;16389;50.126;8.450;2023-05-07T03:56:22;14.20;99.90
29413;DHT22;16389;50.126;8.450;2023-05-07T03:58:48;14.20;99.90
29413;DHT22;16389;50.126;8.450;2023-05-07T04:01:14;14.10;99.90
29413;DHT22;16389;50.126;8.450;2023-05-07T04:03:39;14.20;99.90
29413;DHT22;16389;50.126;8.450;2023-05-07T04:06:05;14.10;99.90
29413;DHT22;16389;50.126;8.450;2023-05-07T04:08:31;14.10;99.90
29413;DHT22;16389;50.126;8.450;2023-05-07T04:10:57;14.20;99.90
29413;DHT22;16389;50.126;8.450;2023-05-07T04:13:23;14.20;99.90
29413;DHT22;16389;50.126;8.450;2023-05-07T04:15:48;14.20;99.90
29413;DHT22;16389;50.126;8.450;2023-05-07T04:18:14;14.20;99.90
29413;DHT22;16389;50.126;8.450;2023-05-07T04:20:40;14.20;99.90
29413;DHT22;16389;50.126;8.450;2023-05-07T04:23:06;14.20;99.90
29413;DHT22;16389;50.126;8.450;2023-05-07T04:25:32;14.10;99.90
29413;DHT22;16389;50.126;8.450;2023-05-07T04:27:58;14.10;99.90
29413;DHT22;16389;50.126;8.450;2023-05-07T04:30:24;14.10;99.90
29413;DHT22;16389;50.126;8.450;2023-05-07T04:32:50;14.20;99.90
29413;DHT22;16389;50.126;8.450;2023-05-07T04:35:16;14.20;99.90
29413;DHT22;16389;50.126;8.450;2023-05-07T04:37:42;14.20;99.90
29413;DHT22;16389;50.126;8.450;2023-05-07T04:40:08;14.20;99.90
29413;DHT22;16389;50.126;8.450;2023-05-07T04:42:33;14.20;99.90
29413;DHT22;16389;50.126;8.450;2023-05-07T04:44:59;14.30;99.90
29413;DHT22;16389;50.126;8.450;2023-05-07T04:47:25;14.30;99.90
29413;DHT22;16389;50.126;8.450;2023-05-07T04:49:51;14.30;99.90
29413;DHT22;16389;50.126;8.450;2023-05-07T04:52:16;14.30;99.90
29413;DHT22;16389;50.126;8.450;2023-05-07T04:54:42;14.30;99.90
29413;DHT22;16389;50.126;8.450;2023-05-07T04:57:07;14.40;99.90
29413;DHT22;16389;50.126;8.450;2023-05-07T04:59:34;14.40;99.90
29413;DHT22;16389;50.126;8.450;2023-05-07T05:01:59;14.40;99.90
29413;DHT22;16389;50.126;8.450;2023-05-07T05:04:25;14.50;99.90
29413;DHT22;16389;50.126;8.450;2023-05-07T05:06:51;14.50;99.90
29413;DHT22;16389;50.126;8.450;2023-05-07T05:09:16;14.50;99.90
29413;DHT22;16389;50.126;8.450;2023-05-07T05:11:42;14.60;99.90
29413;DHT22;16389;50.126;8.450;2023-05-07T05:14:08;14.70;99.90
29413;DHT22;16389;50.126;8.450;2023-05-07T05:16:34;14.70;99.90
29413;DHT22;16389;50.126;8.450;2023-05-07T05:19:01;14.80;99.90
29413;DHT22;16389;50.126;8.450;2023-05-07T05:21:27;14.90;99.90
29413;DHT22;16389;50.126;8.450;2023-05-07T05:23:53;14.90;99.90
29413;DHT22;16389;50.126;8.450;2023-05-07T05:26:19;15.10;99.90
29413;DHT22;16389;50.126;8.450;2023-05-07T05:28:46;15.10;99.90
29413;DHT22;16389;50.126;8.450;2023-05-07T05:31:12;15.20;99.90
29413;DHT22;16389;50.126;8.450;2023-05-07T05:33:39;15.30;99.90
29413;DHT22;16389;50.126;8.450;2023-05-07T05:36:06;15.40;99.90
29413;DHT22;16389;50.126;8.450;2023-05-07T05:38:32;15.50;99.90
29413;DHT22;16389;50.126;8.450;2023-05-07T05:40:57;15.60;99.90
29413;DHT22;16389;50.126;8.450;2023-05-07T05:43:23;15.70;99.90
29413;DHT22;16389;50.126;8.450;2023-05-07T05:45:48;15.80;99.90
29413;DHT22;16389;50.126;8.450;2023-05-07T05:48:14;16.00;99.90
29413;DHT22;16389;50.126;8.450;2023-05-07T05:50:39;16.10;99.90
29413;DHT22;16389;50.126;8.450;2023-05-07T05:53:05;16.10;99.90
29413;DHT22;16389;50.126;8.450;2023-05-07T05:55:31;16.20;99.90
29413;DHT22;16389;50.126;8.450;2023-05-07T05:57:58;16.30;99.90
29413;DHT22;16389;50.126;8.450;2023-05-07T06:00:24;16.30;99.90
29413;DHT22;16389;50.126;8.450;2023-05-07T06:02:49;16.40;99.90
29413;DHT22;16389;50.126;8.450;2023-05-07T06:05:15;16.40;99.90
29413;DHT22;16389;50.126;8.450;2023-05-07T06:07:40;16.50;99.90
29413;DHT22;16389;50.126;8.450;2023-05-07T06:10:07;16.60;99.90
29413;DHT22;16389;50.126;8.450;2023-05-07T06:12:32;16.60;99.90
29413;DHT22;16389;50.126;8.450;2023-05-07T06:14:58;16.60;99.90
29413;DHT22;16389;50.126;8.450;2023-05-07T06:17:24;16.70;99.90
29413;DHT22;16389;50.126;8.450;2023-05-07T06:19:49;16.70;99.90
29413;DHT22;16389;50.126;8.450;2023-05-07T06:22:15;16.80;99.90
29413;DHT22;16389;50.126;8.450;2023-05-07T06:24:41;16.90;99.90
29413;DHT22;16389;50.126;8.450;2023-05-07T06:27:06;16.90;99.90
29413;DHT22;16389;50.126;8.450;2023-05-07T06:29:32;17.00;99.90
29413;DHT22;16389;50.126;8.450;2023-05-07T06:32:11;17.00;99.90
29413;DHT22;16389;50.126;8.450;2023-05-07T06:34:38;17.00;99.90
29413;DHT22;16389;50.126;8.450;2023-05-07T06:37:04;17.00;99.90
29413;DHT22;16389;50.126;8.450;2023-05-07T06:39:30;17.10;99.90
29413;DHT22;16389;50.126;8.450;2023-05-07T06:41:56;17.20;99.90
29413;DHT22;16389;50.126;8.450;2023-05-07T06:44:21;17.20;99.90
29413;DHT22;16389;50.126;8.450;2023-05-07T06:46:47;17.30;99.90
29413;DHT22;16389;50.126;8.450;2023-05-07T06:49:13;17.50;99.90
29413;DHT22;16389;50.126;8.450;2023-05-07T06:51:39;17.80;99.90
29413;DHT22;16389;50.126;8.450;2023-05-07T06:54:05;17.90;99.90
29413;DHT22;16389;50.126;8.450;2023-05-07T06:56:31;18.20;99.90
29413;DHT22;16389;50.126;8.450;2023-05-07T06:58:57;18.40;99.90
29413;DHT22;16389;50.126;8.450;2023-05-07T07:01:23;18.60;99.90
29413;DHT22;16389;50.126;8.450;2023-05-07T07:03:49;18.90;99.90
29413;DHT22;16389;50.126;8.450;2023-05-07T07:06:20;19.00;99.90
29413;DHT22;16389;50.126;8.450;2023-05-07T07:08:52;19.10;99.90
29413;DHT22;16389;50.126;8.450;2023-05-07T07:11:20;19.10;99.90
29413;DHT22;16389;50.126;8.450;2023-05-07T07:13:46;19.20;99.90
29413;DHT22;16389;50.126;8.450;2023-05-07T07:16:16;19.30;99.90
29413;DHT22;16389;50.126;8.450;2023-05-07T07:18:45;19.30;99.90
29413;DHT22;16389;50.126;8.450;2023-05-07T07:21:14;19.40;99.90
29413;DHT22;16389;50.126;8.450;2023-05-07T07:23:40;19.40;99.90
29413;DHT22;16389;50.126;8.450;2023-05-07T07:26:05;19.50;99.90
29413;DHT22;16389;50.126;8.450;2023-05-07T07:28:32;19.50;99.90
29413;DHT22;16389;50.126;8.450;2023-05-07T07:31:14;19.40;99.90
29413;DHT22;16389;50.126;8.450;2023-05-07T07:33:46;19.40;99.90
29413;DHT22;16389;50.126;8.450;2023-05-07T07:36:11;19.50;99.90
29413;DHT22;16389;50.126;8.450;2023-05-07T07:38:39;19.50;99.90
29413;DHT22;16389;50.126;8.450;2023-05-07T07:41:23;19.70;99.90
29413;DHT22;16389;50.126;8.450;2023-05-07T07:43:49;19.70;99.90
29413;DHT22;16389;50.126;8.450;2023-05-07T07:46:15;19.80;99.90
29413;DHT22;16389;50.126;8.450;2023-05-07T07:48:41;19.70;99.90
29413;DHT22;16389;50.126;8.450;2023-05-07T07:51:07;19.70;99.90
29413;DHT22;16389;50.126;8.450;2023-05-07T07:53:53;19.70;99.90
29413;DHT22;16389;50.126;8.450;2023-05-07T07:56:19;19.50;99.90
29413;DHT22;16389;50.126;8.450;2023-05-07T07:58:48;19.50;99.90
29413;DHT22;16389;50.126;8.450;2023-05-07T08:01:17;19.50;99.90
29413;DHT22;16389;50.126;8.450;2023-05-07T08:03:43;19.40;99.90
29413;DHT22;16389;50.126;8.450;2023-05-07T08:06:09;19.40;99.90
29413;DHT22;16389;50.126;8.450;2023-05-07T08:08:35;19.50;99.90
29413;DHT22;16389;50.126;8.450;2023-05-07T08:11:01;19.50;99.90
29413;DHT22;16389;50.126;8.450;2023-05-07T08:13:27;19.60;99.90
29413;DHT22;16389;50.126;8.450;2023-05-07T08:15:58;19.60;99.90
29413;DHT22;16389;50.126;8.450;2023-05-07T08:18:23;19.70;99.90
29413;DHT22;16389;50.126;8.450;2023-05-07T08:20:50;19.70;99.90
29413;DHT22;16389;50.126;8.450;2023-05-07T08:23:16;19.70;99.90
29413;DHT22;16389;50.126;8.450;2023-05-07T08:25:42;19.80;99.90
29413;DHT22;16389;50.126;8.450;2023-05-07T08:28:08;19.90;99.90
29413;DHT22;16389;50.126;8.450;2023-05-07T08:30:37;19.90;99.90
29413;DHT22;16389;50.126;8.450;2023-05-07T08:33:03;20.10;99.90
29413;DHT22;16389;50.126;8.450;2023-05-07T08:35:29;20.20;99.90
29413;DHT22;16389;50.126;8.450;2023-05-07T08:37:55;20.20;99.90
29413;DHT22;16389;50.126;8.450;2023-05-07T08:40:25;20.40;99.90
29413;DHT22;16389;50.126;8.450;2023-05-07T08:42:51;20.50;99.90
29413;DHT22;16389;50.126;8.450;2023-05-07T08:45:19;20.60;99.90
29413;DHT22;16389;50.126;8.450;2023-05-07T08:47:52;20.80;99.90
29413;DHT22;16389;50.126;8.450;2023-05-07T08:50:20;20.70;99.90
29413;DHT22;16389;50.126;8.450;2023-05-07T08:52:49;20.70;99.90
29413;DHT22;16389;50.126;8.450;2023-05-07T08:55:15;20.80;99.90
29413;DHT22;16389;50.126;8.450;2023-05-07T08:57:44;20.90;99.90
29413;DHT22;16389;50.126;8.450;2023-05-07T09:00:11;20.90;99.90
29413;DHT22;16389;50.126;8.450;2023-05-07T09:02:37;21.00;99.90
29413;DHT22;16389;50.126;8.450;2023-05-07T09:05:03;21.10;99.90
29413;DHT22;16389;50.126;8.450;2023-05-07T09:07:34;21.10;99.90
29413;DHT22;16389;50.126;8.450;2023-05-07T09:10:03;21.30;99.90
29413;DHT22;16389;50.126;8.450;2023-05-07T09:12:30;21.30;99.90
29413;DHT22;16389;50.126;8.450;2023-05-07T09:14:56;21.40;99.90
29413;DHT22;16389;50.126;8.450;2023-05-07T09:17:22;21.50;99.90
29413;DHT22;16389;50.126;8.450;2023-05-07T09:19:51;21.60;99.90
29413;DHT22;16389;50.126;8.450;2023-05-07T09:22:22;21.70;99.90
29413;DHT22;16389;50.126;8.450;2023-05-07T09:24:51;22.00;99.90
29413;DHT22;16389;50.126;8.450;2023-05-07T09:27:17;22.30;99.90
29413;DHT22;16389;50.126;8.450;2023-05-07T09:29:44;22.70;99.90
29413;DHT22;16389;50.126;8.450;2023-05-07T09:32:10;23.20;99.90
29413;DHT22;16389;50.126;8.450;2023-05-07T09:34:36;23.70;99.90
29413;DHT22;16389;50.126;8.450;2023-05-07T09:37:06;24.10;99.90
29413;DHT22;16389;50.126;8.450;2023-05-07T09:39:49;24.30;99.90
29413;DHT22;16389;50.126;8.450;2023-05-07T09:42:15;24.60;99.90
29413;DHT22;16389;50.126;8.450;2023-05-07T09:44:42;24.70;99.90
29413;DHT22;16389;50.126;8.450;2023-05-07T09:47:12;25.10;99.90
29413;DHT22;16389;50.126;8.450;2023-05-07T09:49:48;25.10;99.90
29413;DHT22;16389;50.126;8.450;2023-05-07T09:52:23;25.40;99.90
29413;DHT22;16389;50.126;8.450;2023-05-07T09:54:51;25.80;99.90
29413;DHT22;16389;50.126;8.450;2023-05-07T09:57:21;25.90;99.90
29413;DHT22;16389;50.126;8.450;2023-05-07T09:59:47;26.20;99.10
29413;DHT22;16389;50.126;8.450;2023-05-07T10:02:16;26.10;98.50
29413;DHT22;16389;50.126;8.450;2023-05-07T10:04:43;25.90;98.30
29413;DHT22;16389;50.126;8.450;2023-05-07T10:07:10;25.70;98.50
29413;DHT22;16389;50.126;8.450;2023-05-07T10:09:40;25.50;98.80
29413;DHT22;16389;50.126;8.450;2023-05-07T10:12:08;25.30;99.70
29413;DHT22;16389;50.126;8.450;2023-05-07T10:14:37;25.30;99.40
29413;DHT22;16389;50.126;8.450;2023-05-07T10:17:04;25.30;98.90
29413;DHT22;16389;50.126;8.450;2023-05-07T10:19:31;25.60;98.50
29413;DHT22;16389;50.126;8.450;2023-05-07T10:22:05;25.70;97.60
29413;DHT22;16389;50.126;8.450;2023-05-07T10:24:38;25.70;97.10
29413;DHT22;16389;50.126;8.450;2023-05-07T10:27:10;25.90;98.10
29413;DHT22;16389;50.126;8.450;2023-05-07T10:29:55;26.20;97.00
29413;DHT22;16389;50.126;8.450;2023-05-07T10:35:00;26.70;96.10
29413;DHT22;16389;50.126;8.450;2023-05-07T10:37:29;26.90;95.20
29413;DHT22;16389;50.126;8.450;2023-05-07T10:39:55;27.40;94.70
29413;DHT22;16389;50.126;8.450;2023-05-07T10:42:22;28.10;93.50
29413;DHT22;16389;50.126;8.450;2023-05-07T10:44:54;28.50;92.20
29413;DHT22;16389;50.126;8.450;2023-05-07T10:47:20;28.60;92.10
29413;DHT22;16389;50.126;8.450;2023-05-07T10:52:13;28.00;90.90
29413;DHT22;16389;50.126;8.450;2023-05-07T10:54:43;27.50;91.90
29413;DHT22;16389;50.126;8.450;2023-05-07T11:00:00;26.80;92.30
29413;DHT22;16389;50.126;8.450;2023-05-07T11:05:32;26.80;93.00
29413;DHT22;16389;50.126;8.450;2023-05-07T11:08:05;27.10;92.50
29413;DHT22;16389;50.126;8.450;2023-05-07T11:10:53;27.90;91.50
29413;DHT22;16389;50.126;8.450;2023-05-07T11:13:43;29.20;90.00
29413;DHT22;16389;50.126;8.450;2023-05-07T11:16:23;30.00;88.20
29413;DHT22;16389;50.126;8.450;2023-05-07T11:18:56;30.20;85.80
29413;DHT22;16389;50.126;8.450;2023-05-07T11:21:39;30.40;85.60
29413;DHT22;16389;50.126;8.450;2023-05-07T11:24:16;30.00;85.90
29413;DHT22;16389;50.126;8.450;2023-05-07T11:26:54;29.50;85.70
29413;DHT22;16389;50.126;8.450;2023-05-07T11:29:24;29.30;83.00
29413;DHT22;16389;50.126;8.450;2023-05-07T11:31:55;29.00;85.20
29413;DHT22;16389;50.126;8.450;2023-05-07T11:34:26;28.80;85.10
29413;DHT22;16389;50.126;8.450;2023-05-07T11:36:58;28.90;87.30
29413;DHT22;16389;50.126;8.450;2023-05-07T11:39:34;29.50;86.90
29413;DHT22;16389;50.126;8.450;2023-05-07T11:42:05;30.10;86.90
29413;DHT22;16389;50.126;8.450;2023-05-07T11:44:45;30.60;82.70
29413;DHT22;16389;50.126;8.450;2023-05-07T11:47:16;30.40;80.50
29413;DHT22;16389;50.126;8.450;2023-05-07T11:49:53;30.00;83.10
29413;DHT22;16389;50.126;8.450;2023-05-07T11:52:23;29.40;81.40
29413;DHT22;16389;50.126;8.450;2023-05-07T11:55:00;29.10;83.10
29413;DHT22;16389;50.126;8.450;2023-05-07T11:57:36;28.60;87.00
29413;DHT22;16389;50.126;8.450;2023-05-07T12:00:05;28.40;86.10
29413;DHT22;16389;50.126;8.450;2023-05-07T12:03:04;28.50;86.20
29413;DHT22;16389;50.126;8.450;2023-05-07T12:05:29;28.50;85.60
29413;DHT22;16389;50.126;8.450;2023-05-07T12:08:07;28.80;85.30
29413;DHT22;16389;50.126;8.450;2023-05-07T12:10:40;29.20;84.80
29413;DHT22;16389;50.126;8.450;2023-05-07T12:13:26;29.60;85.30
29413;DHT22;16389;50.126;8.450;2023-05-07T12:16:05;30.00;84.50
29413;DHT22;16389;50.126;8.450;2023-05-07T12:18:36;30.30;80.10
29413;DHT22;16389;50.126;8.450;2023-05-07T12:21:07;30.60;80.10
29413;DHT22;16389;50.126;8.450;2023-05-07T12:23:35;30.90;79.10
29413;DHT22;16389;50.126;8.450;2023-05-07T12:26:02;31.20;79.80
29413;DHT22;16389;50.126;8.450;2023-05-07T12:28:31;31.10;77.00
29413;DHT22;16389;50.126;8.450;2023-05-07T12:31:02;31.20;78.50
29413;DHT22;16389;50.126;8.450;2023-05-07T12:33:33;31.60;77.40
29413;DHT22;16389;50.126;8.450;2023-05-07T12:36:17;32.20;75.80
29413;DHT22;16389;50.126;8.450;2023-05-07T12:38:43;32.60;75.80
29413;DHT22;16389;50.126;8.450;2023-05-07T12:41:11;33.30;73.70
29413;DHT22;16389;50.126;8.450;2023-05-07T12:44:19;34.10;73.20
29413;DHT22;16389;50.126;8.450;2023-05-07T12:46:46;34.70;71.50
29413;DHT22;16389;50.126;8.450;2023-05-07T12:49:26;35.70;66.40
29413;DHT22;16389;50.126;8.450;2023-05-07T12:51:53;36.50;65.80
29413;DHT22;16389;50.126;8.450;2023-05-07T12:54:42;36.40;63.40
29413;DHT22;16389;50.126;8.450;2023-05-07T12:57:10;36.30;62.60
29413;DHT22;16389;50.126;8.450;2023-05-07T12:59:40;36.10;62.20
29413;DHT22;16389;50.126;8.450;2023-05-07T13:02:09;35.70;62.80
29413;DHT22;16389;50.126;8.450;2023-05-07T13:04:46;34.70;62.40
29413;DHT22;16389;50.126;8.450;2023-05-07T13:07:14;33.80;61.20
29413;DHT22;16389;50.126;8.450;2023-05-07T13:12:37;32.30;66.40
29413;DHT22;16389;50.126;8.450;2023-05-07T13:15:07;31.30;65.80
29413;DHT22;16389;50.126;8.450;2023-05-07T13:17:37;30.70;68.60
29413;DHT22;16389;50.126;8.450;2023-05-07T13:20:06;30.10;68.80
29413;DHT22;16389;50.126;8.450;2023-05-07T13:22:43;29.70;70.30
29413;DHT22;16389;50.126;8.450;2023-05-07T13:25:09;29.30;72.60
29413;DHT22;16389;50.126;8.450;2023-05-07T13:27:38;29.10;72.40
29413;DHT22;16389;50.126;8.450;2023-05-07T13:30:04;29.40;73.20
29413;DHT22;16389;50.126;8.450;2023-05-07T13:32:31;29.50;74.20
29413;DHT22;16389;50.126;8.450;2023-05-07T13:34:57;29.90;72.80
29413;DHT22;16389;50.126;8.450;2023-05-07T13:37:25;30.10;72.30
29413;DHT22;16389;50.126;8.450;2023-05-07T13:39:51;30.70;70.20
29413;DHT22;16389;50.126;8.450;2023-05-07T13:42:20;31.70;70.30
29413;DHT22;16389;50.126;8.450;2023-05-07T13:44:45;33.50;66.70
29413;DHT22;16389;50.126;8.450;2023-05-07T13:47:11;35.10;64.90
29413;DHT22;16389;50.126;8.450;2023-05-07T13:49:38;36.60;61.70
29413;DHT22;16389;50.126;8.450;2023-05-07T13:52:09;37.50;58.90
29413;DHT22;16389;50.126;8.450;2023-05-07T13:54:38;37.90;57.70
29413;DHT22;16389;50.126;8.450;2023-05-07T13:57:04;38.10;57.50
29413;DHT22;16389;50.126;8.450;2023-05-07T13:59:35;37.90;55.80
29413;DHT22;16389;50.126;8.450;2023-05-07T14:02:01;38.00;55.50
29413;DHT22;16389;50.126;8.450;2023-05-07T14:04:27;38.50;55.10
29413;DHT22;16389;50.126;8.450;2023-05-07T14:06:59;38.80;53.70
29413;DHT22;16389;50.126;8.450;2023-05-07T14:09:35;38.70;53.70
29413;DHT22;16389;50.126;8.450;2023-05-07T14:12:08;38.60;54.80
29413;DHT22;16389;50.126;8.450;2023-05-07T14:14:40;38.90;54.50
29413;DHT22;16389;50.126;8.450;2023-05-07T14:17:09;39.20;51.00
29413;DHT22;16389;50.126;8.450;2023-05-07T14:19:40;39.40;50.70
29413;DHT22;16389;50.126;8.450;2023-05-07T14:22:16;39.40;50.40
29413;DHT22;16389;50.126;8.450;2023-05-07T14:24:45;39.40;51.50
29413;DHT22;16389;50.126;8.450;2023-05-07T14:27:11;39.50;50.00
29413;DHT22;16389;50.126;8.450;2023-05-07T14:29:39;39.80;50.80
29413;DHT22;16389;50.126;8.450;2023-05-07T14:32:08;39.90;48.90
29413;DHT22;16389;50.126;8.450;2023-05-07T14:34:38;39.70;49.80
29413;DHT22;16389;50.126;8.450;2023-05-07T14:37:09;38.80;50.30
29413;DHT22;16389;50.126;8.450;2023-05-07T14:39:37;38.60;51.00
29413;DHT22;16389;50.126;8.450;2023-05-07T14:42:05;38.60;49.70
29413;DHT22;16389;50.126;8.450;2023-05-07T14:44:36;38.70;50.20
29413;DHT22;16389;50.126;8.450;2023-05-07T14:47:09;39.10;49.50
29413;DHT22;16389;50.126;8.450;2023-05-07T14:49:38;39.40;49.50
29413;DHT22;16389;50.126;8.450;2023-05-07T14:52:04;39.90;48.80
29413;DHT22;16389;50.126;8.450;2023-05-07T14:54:35;40.30;47.90
29413;DHT22;16389;50.126;8.450;2023-05-07T14:57:02;39.90;47.40
29413;DHT22;16389;50.126;8.450;2023-05-07T14:59:31;39.90;47.80
29413;DHT22;16389;50.126;8.450;2023-05-07T15:02:01;40.40;47.30
29413;DHT22;16389;50.126;8.450;2023-05-07T15:04:30;40.60;47.20
29413;DHT22;16389;50.126;8.450;2023-05-07T15:07:29;40.40;46.90
29413;DHT22;16389;50.126;8.450;2023-05-07T15:09:58;39.10;47.70
29413;DHT22;16389;50.126;8.450;2023-05-07T15:12:24;37.70;47.50
29413;DHT22;16389;50.126;8.450;2023-05-07T15:14:49;36.20;48.80
29413;DHT22;16389;50.126;8.450;2023-05-07T15:17:15;35.00;51.50
29413;DHT22;16389;50.126;8.450;2023-05-07T15:19:40;34.00;52.00
29413;DHT22;16389;50.126;8.450;2023-05-07T15:22:06;33.70;54.30
29413;DHT22;16389;50.126;8.450;2023-05-07T15:24:31;33.60;54.30
29413;DHT22;16389;50.126;8.450;2023-05-07T15:26:58;33.70;53.20
29413;DHT22;16389;50.126;8.450;2023-05-07T15:29:47;33.20;53.70
29413;DHT22;16389;50.126;8.450;2023-05-07T15:32:16;32.20;55.90
29413;DHT22;16389;50.126;8.450;2023-05-07T15:34:42;31.70;55.60
29413;DHT22;16389;50.126;8.450;2023-05-07T15:37:20;31.40;57.50
29413;DHT22;16389;50.126;8.450;2023-05-07T15:39:55;30.90;57.30
29413;DHT22;16389;50.126;8.450;2023-05-07T15:42:21;30.50;58.50
29413;DHT22;16389;50.126;8.450;2023-05-07T15:44:46;30.10;59.30
29413;DHT22;16389;50.126;8.450;2023-05-07T15:47:13;29.90;59.40
29413;DHT22;16389;50.126;8.450;2023-05-07T15:49:40;30.00;60.30
29413;DHT22;16389;50.126;8.450;2023-05-07T15:52:06;29.60;59.60